createdAt,value
2023-02-18T00:01:04.889Z,77.40
2023-02-18T00:03:32.401Z,87.28
2023-02-18T00:05:59.798Z,93.40
2023-02-18T00:08:27.112Z,88.07
2023-02-18T00:10:54.753Z,111.22
2023-02-18T00:13:22.119Z,109.20
2023-02-18T00:15:49.604Z,102.15
2023-02-18T00:18:17.029Z,112.82
2023-02-18T00:20:44.498Z,107.90
2023-02-18T00:23:11.846Z,118.95
2023-02-18T00:25:39.232Z,131.57
2023-02-18T00:28:06.600Z,131.40
2023-02-18T00:30:34.037Z,127.82
2023-02-18T00:33:01.718Z,124.35
2023-02-18T00:35:29.099Z,134.40
2023-02-18T00:37:56.531Z,132.93
2023-02-18T00:40:23.986Z,139.10
2023-02-18T00:42:51.415Z,136.40
2023-02-18T00:45:18.720Z,133.40
2023-02-18T00:47:46.129Z,131.70
2023-02-18T00:50:13.522Z,139.40
2023-02-18T00:52:42.916Z,151.85
2023-02-18T00:55:10.314Z,140.60
2023-02-18T00:57:37.681Z,149.77
2023-02-18T01:00:09.446Z,144.57
2023-02-18T01:02:36.900Z,135.88
2023-02-18T01:05:04.536Z,133.73
2023-02-18T01:07:31.893Z,140.25
2023-02-18T01:09:59.367Z,143.95
2023-02-18T01:12:26.716Z,137.45
2023-02-18T01:14:54.233Z,137.82
2023-02-18T01:17:21.574Z,141.35
2023-02-18T01:19:49.031Z,135.25
2023-02-18T01:22:16.421Z,139.32
2023-02-18T01:24:46.199Z,128.20
2023-02-18T01:27:13.727Z,131.75
2023-02-18T01:29:41.073Z,128.57
2023-02-18T01:32:08.575Z,119.70
2023-02-18T01:34:36.040Z,109.68
2023-02-18T01:37:03.386Z,123.20
2023-02-18T01:39:30.983Z,116.53
2023-02-18T01:41:58.296Z,111.53
2023-02-18T01:44:27.713Z,118.20
2023-02-18T01:46:55.547Z,114.63
2023-02-18T01:49:35.649Z,123.45
2023-02-18T01:52:12.823Z,123.07
2023-02-18T01:54:55.955Z,126.35
2023-02-18T02:00:13.815Z,138.57
2023-02-18T02:02:44.937Z,135.40
2023-02-18T02:05:12.821Z,131.07
2023-02-18T02:07:41.466Z,136.55
2023-02-18T02:10:12.329Z,130.50
2023-02-18T02:12:42.739Z,139.27
2023-02-18T02:15:28.675Z,129.05
2023-02-18T02:18:20.375Z,128.70
2023-02-18T02:20:47.700Z,116.97
2023-02-18T02:23:34.282Z,113.65
2023-02-18T02:26:29.399Z,110.32
2023-02-18T02:29:15.650Z,94.00
2023-02-18T02:32:09.058Z,100.60
2023-02-18T02:37:49.289Z,96.10
2023-02-18T02:40:21.690Z,84.65
2023-02-18T02:42:52.068Z,90.20
2023-02-18T02:45:43.955Z,79.47
2023-02-18T02:48:20.386Z,79.55
2023-02-18T02:51:05.356Z,81.90
2023-02-18T02:53:35.561Z,69.88
2023-02-18T02:56:02.971Z,75.53
2023-02-18T02:58:30.627Z,81.43
2023-02-18T03:01:04.144Z,74.75
2023-02-18T03:04:03.864Z,73.47
2023-02-18T03:07:03.677Z,78.68
2023-02-18T03:09:57.106Z,67.70
2023-02-18T03:15:16.538Z,61.33
2023-02-18T03:17:58.758Z,59.05
2023-02-18T03:20:36.049Z,52.60
2023-02-18T03:23:07.843Z,49.80
2023-02-18T03:25:36.210Z,48.15
2023-02-18T03:28:07.768Z,49.33
2023-02-18T03:30:44.370Z,45.67
2023-02-18T03:33:15.032Z,46.72
2023-02-18T03:35:43.589Z,42.60
2023-02-18T03:38:18.922Z,40.53
2023-02-18T03:40:46.801Z,46.15
2023-02-18T03:43:14.552Z,50.58
2023-02-18T03:45:42.008Z,55.20
2023-02-18T03:48:09.480Z,52.85
2023-02-18T03:50:37.063Z,60.50
2023-02-18T03:53:04.451Z,65.32
2023-02-18T03:55:37.375Z,63.50
2023-02-18T04:00:32.059Z,56.40
2023-02-18T04:02:59.537Z,57.58
2023-02-18T04:05:27.119Z,53.63
2023-02-18T04:07:54.767Z,47.67
2023-02-18T04:10:22.908Z,45.20
2023-02-18T04:12:50.393Z,47.72
2023-02-18T04:15:17.854Z,44.05
2023-02-18T04:17:45.345Z,45.53
2023-02-18T04:20:12.902Z,47.05
2023-02-18T04:22:40.321Z,43.20
2023-02-18T04:25:08.141Z,48.33
2023-02-18T04:27:35.683Z,44.47
2023-02-18T04:30:04.287Z,40.03
2023-02-18T04:32:31.774Z,42.20
2023-02-18T04:34:59.121Z,38.22
2023-02-18T04:37:26.505Z,36.10
2023-02-18T04:39:53.915Z,38.45
2023-02-18T04:42:21.287Z,35.50
2023-02-18T04:44:48.627Z,37.38
2023-02-18T04:47:15.988Z,32.85
2023-02-18T04:49:43.828Z,27.52
2023-02-18T04:52:11.166Z,30.10
2023-02-18T04:54:38.465Z,23.98
2023-02-18T04:57:05.999Z,22.05
2023-02-18T04:59:33.443Z,21.40
2023-02-18T05:02:00.799Z,20.85
2023-02-18T05:04:28.442Z,23.83
2023-02-18T05:06:55.942Z,28.83
2023-02-18T05:09:23.772Z,32.13
2023-02-18T05:11:51.703Z,39.13
2023-02-18T05:14:19.613Z,43.55
2023-02-18T05:16:46.997Z,53.05
2023-02-18T05:19:17.229Z,60.40
2023-02-18T05:21:44.861Z,58.33
2023-02-18T05:24:12.568Z,59.67
2023-02-18T05:26:39.917Z,67.18
2023-02-18T05:29:07.280Z,66.97
2023-02-18T05:31:34.663Z,74.93
2023-02-18T05:34:02.078Z,68.45
2023-02-18T05:36:29.404Z,67.55
2023-02-18T05:38:56.779Z,53.50
2023-02-18T05:41:24.165Z,54.15
2023-02-18T05:44:10.294Z,57.58
2023-02-18T05:46:37.707Z,47.83
2023-02-18T05:49:05.032Z,53.60
2023-02-18T05:51:32.601Z,46.95
2023-02-18T05:53:59.988Z,47.28
2023-02-18T05:56:27.360Z,45.97
2023-02-18T05:58:54.651Z,45.60
2023-02-18T06:01:22.183Z,46.55
2023-02-18T06:03:49.558Z,45.45
2023-02-18T06:06:16.982Z,47.03
2023-02-18T06:08:44.323Z,54.55
2023-02-18T06:11:11.619Z,57.22
2023-02-18T06:13:38.992Z,64.72
2023-02-18T06:16:09.073Z,60.65
2023-02-18T06:18:36.564Z,65.60
2023-02-18T06:21:04.216Z,61.10
2023-02-18T06:23:34.083Z,53.00
2023-02-18T06:26:01.899Z,57.15
2023-02-18T06:28:29.244Z,60.35
2023-02-18T06:30:57.108Z,47.45
2023-02-18T06:33:25.070Z,43.03
2023-02-18T06:36:02.154Z,45.60
2023-02-18T06:38:29.778Z,44.47
2023-02-18T06:40:57.122Z,47.38
2023-02-18T06:43:24.881Z,45.72
2023-02-18T06:45:52.938Z,51.08
2023-02-18T06:48:20.906Z,58.65
2023-02-18T06:50:49.897Z,51.40
2023-02-18T06:53:17.758Z,59.80
2023-02-18T06:55:45.693Z,65.60
2023-02-18T06:58:14.032Z,60.33
2023-02-18T07:00:41.635Z,62.65
2023-02-18T07:03:09.100Z,72.45
2023-02-18T07:05:36.547Z,51.15
2023-02-18T07:08:04.012Z,54.42
2023-02-18T07:10:31.477Z,54.47
2023-02-18T07:12:58.894Z,65.18
2023-02-18T07:15:27.913Z,52.88
2023-02-18T07:17:55.971Z,54.13
2023-02-18T07:20:23.937Z,59.83
2023-02-18T07:22:51.543Z,51.33
2023-02-18T07:25:20.934Z,46.10
2023-02-18T07:27:49.444Z,50.33
2023-02-18T07:30:17.107Z,42.08
2023-02-18T07:32:44.629Z,43.00
2023-02-18T07:35:14.709Z,42.80
2023-02-18T07:37:45.920Z,40.05
2023-02-18T07:40:15.531Z,40.92
2023-02-18T07:42:42.886Z,42.75
2023-02-18T07:45:11.612Z,36.80
2023-02-18T07:47:39.010Z,38.58
2023-02-18T07:50:07.708Z,41.08
2023-02-18T07:52:35.101Z,42.63
2023-02-18T07:55:02.412Z,36.63
2023-02-18T07:57:29.832Z,37.53
2023-02-18T07:59:57.168Z,36.90
2023-02-18T08:02:25.663Z,39.47
2023-02-18T08:04:53.141Z,36.58
2023-02-18T08:07:22.276Z,27.33
2023-02-18T08:09:51.192Z,41.60
2023-02-18T08:12:18.658Z,34.78
2023-02-18T08:14:48.917Z,42.15
2023-02-18T08:17:17.724Z,39.25
2023-02-18T08:19:45.168Z,34.83
2023-02-18T08:22:12.508Z,38.75
2023-02-18T08:24:39.989Z,33.95
2023-02-18T08:27:07.383Z,43.47
2023-02-18T08:29:34.840Z,36.25
2023-02-18T08:32:02.248Z,38.58
2023-02-18T08:34:32.353Z,37.45
2023-02-18T08:37:00.200Z,33.40
2023-02-18T08:39:27.490Z,32.05
2023-02-18T08:41:54.957Z,32.80
2023-02-18T08:44:22.341Z,28.98
2023-02-18T08:46:49.898Z,30.65
2023-02-18T08:49:17.676Z,29.13
2023-02-18T08:51:45.013Z,34.08
2023-02-18T08:54:22.853Z,36.42
2023-02-18T08:56:50.281Z,30.90
2023-02-18T08:59:17.669Z,29.42
2023-02-18T09:01:45.110Z,32.75
2023-02-18T09:04:12.627Z,31.83
2023-02-18T09:06:40.139Z,39.33
2023-02-18T09:09:07.597Z,23.17
2023-02-18T09:11:35.322Z,32.67
2023-02-18T09:14:03.057Z,34.15
2023-02-18T09:16:30.520Z,34.90
2023-02-18T09:18:58.888Z,35.75
2023-02-18T09:21:26.968Z,25.27
2023-02-18T09:23:54.534Z,34.08
2023-02-18T09:26:26.352Z,24.88
2023-02-18T09:28:55.662Z,29.45
2023-02-18T09:31:25.747Z,20.85
2023-02-18T09:33:56.460Z,23.10
2023-02-18T09:36:24.150Z,22.70
2023-02-18T09:38:51.809Z,30.13
2023-02-18T09:41:44.431Z,29.15
2023-02-18T09:44:22.127Z,27.98
2023-02-18T09:47:04.822Z,32.00
2023-02-18T09:49:40.638Z,27.48
2023-02-18T09:52:21.402Z,29.70
2023-02-18T09:54:50.174Z,28.38
2023-02-18T09:57:34.035Z,30.23
2023-02-18T10:00:07.301Z,24.98
2023-02-18T10:02:35.147Z,28.67
2023-02-18T10:05:03.584Z,32.42
2023-02-18T10:07:32.888Z,27.83
2023-02-18T10:10:11.650Z,26.88
2023-02-18T10:12:39.109Z,32.28
2023-02-18T10:15:11.919Z,33.30
2023-02-18T10:17:39.451Z,23.27
2023-02-18T10:20:08.466Z,26.40
2023-02-18T10:22:36.148Z,26.48
2023-02-18T10:25:05.341Z,30.70
2023-02-18T10:27:35.759Z,24.15
2023-02-18T10:30:28.966Z,28.25
2023-02-18T10:33:11.008Z,23.00
2023-02-18T10:35:52.050Z,24.33
2023-02-18T10:38:41.137Z,31.95
2023-02-18T10:41:27.308Z,28.25
2023-02-18T10:44:17.632Z,31.80
2023-02-18T10:46:44.942Z,24.88
2023-02-18T10:49:36.451Z,32.72
2023-02-18T10:52:06.169Z,32.72
2023-02-18T10:55:01.675Z,30.25
2023-02-18T10:57:29.030Z,28.13
2023-02-18T11:00:19.711Z,25.92
2023-02-18T11:02:47.741Z,27.33
2023-02-18T11:05:25.894Z,24.67
2023-02-18T11:07:56.869Z,26.65
2023-02-18T11:10:25.549Z,30.00
2023-02-18T11:13:01.266Z,28.70
2023-02-18T11:15:29.967Z,28.70
2023-02-18T11:18:11.966Z,30.17
2023-02-18T11:20:40.102Z,26.35
2023-02-18T11:23:07.548Z,24.83
2023-02-18T11:25:39.837Z,24.40
2023-02-18T11:28:31.302Z,29.25
2023-02-18T11:31:01.550Z,24.70
2023-02-18T11:33:47.894Z,31.77
2023-02-18T11:36:38.785Z,30.63
2023-02-18T11:39:24.529Z,27.58
2023-02-18T11:42:01.023Z,31.02
2023-02-18T11:44:30.608Z,32.13
2023-02-18T11:47:07.563Z,28.48
2023-02-18T11:49:35.835Z,32.55
2023-02-18T11:52:26.404Z,33.10
2023-02-18T11:55:34.079Z,35.42
2023-02-18T11:58:05.401Z,32.15
2023-02-18T12:00:38.783Z,32.15
2023-02-18T12:03:15.600Z,30.45
2023-02-18T12:05:44.213Z,29.33
2023-02-18T12:08:11.856Z,31.70
2023-02-18T12:10:47.158Z,34.38
2023-02-18T12:13:27.588Z,34.60
2023-02-18T12:16:11.752Z,31.00
2023-02-18T12:19:02.453Z,32.83
2023-02-18T12:21:41.807Z,29.33
2023-02-18T12:24:24.285Z,31.45
2023-02-18T12:27:11.285Z,26.98
2023-02-18T12:30:07.117Z,27.92
2023-02-18T12:33:07.943Z,30.15
2023-02-18T12:35:50.663Z,30.90
2023-02-18T12:38:50.313Z,24.00
2023-02-18T12:41:26.811Z,30.33
2023-02-18T12:44:15.123Z,32.17
2023-02-18T12:47:19.893Z,30.42
2023-02-18T12:50:15.330Z,27.63
2023-02-18T12:53:01.634Z,29.27
2023-02-18T12:55:43.942Z,26.30
2023-02-18T12:58:43.636Z,20.20
2023-02-18T13:01:32.527Z,26.75
2023-02-18T13:04:18.663Z,25.55
2023-02-18T13:07:04.588Z,26.83
2023-02-18T13:09:45.911Z,26.38
2023-02-18T13:12:30.788Z,30.17
2023-02-18T13:15:25.052Z,26.05
2023-02-18T13:17:57.375Z,24.05
2023-02-18T13:20:36.774Z,30.67
2023-02-18T13:23:04.851Z,29.83
2023-02-18T13:25:37.793Z,24.50
2023-02-18T13:30:52.423Z,29.58
2023-02-18T13:33:41.433Z,24.15
2023-02-18T13:36:23.713Z,25.77
2023-02-18T13:39:11.475Z,28.13
2023-02-18T13:41:43.224Z,20.23
2023-02-18T13:44:30.557Z,26.65
2023-02-18T13:46:59.126Z,28.05
2023-02-18T13:49:37.884Z,25.42
2023-02-18T13:52:05.645Z,21.80
2023-02-18T13:54:45.118Z,27.55
2023-02-18T13:57:15.241Z,27.30
2023-02-18T13:59:51.345Z,31.70
2023-02-18T14:02:21.827Z,19.75
2023-02-18T14:04:52.816Z,25.13
2023-02-18T14:07:36.196Z,21.30
2023-02-18T14:10:21.059Z,25.90
2023-02-18T14:12:57.878Z,24.63
2023-02-18T14:15:26.430Z,30.10
2023-02-18T14:18:14.462Z,22.40
2023-02-18T14:20:41.772Z,23.33
2023-02-18T14:23:21.127Z,23.23
2023-02-18T14:25:59.073Z,29.77
2023-02-18T14:28:36.164Z,24.55
2023-02-18T14:31:05.828Z,24.02
2023-02-18T14:33:37.119Z,27.02
2023-02-18T14:36:16.185Z,26.02
2023-02-18T14:38:54.607Z,28.15
2023-02-18T14:41:31.096Z,27.52
2023-02-18T14:44:02.854Z,24.55
2023-02-18T14:46:53.331Z,28.75
2023-02-18T14:49:37.441Z,28.60
2023-02-18T14:52:10.254Z,31.90
2023-02-18T14:54:37.819Z,27.92
2023-02-18T14:57:09.148Z,29.00
2023-02-18T14:59:40.968Z,34.78
2023-02-18T15:02:23.389Z,26.02
2023-02-18T15:04:50.806Z,29.70
2023-02-18T15:07:22.352Z,31.60
2023-02-18T15:09:53.791Z,36.17
2023-02-18T15:12:26.752Z,36.40
2023-02-18T15:14:54.950Z,27.35
2023-02-18T15:17:30.051Z,29.75
2023-02-18T15:19:59.386Z,29.30
2023-02-18T15:22:30.056Z,31.05
2023-02-18T15:24:57.733Z,31.58
2023-02-18T15:27:28.546Z,28.08
2023-02-18T15:30:19.281Z,31.73
2023-02-18T15:32:51.937Z,30.77
2023-02-18T15:35:26.104Z,33.85
2023-02-18T15:37:58.220Z,29.05
2023-02-18T15:40:31.057Z,26.88
2023-02-18T15:45:33.912Z,28.60
2023-02-18T15:48:07.706Z,32.10
2023-02-18T15:50:38.205Z,40.40
2023-02-18T15:53:12.969Z,38.25
2023-02-18T15:55:43.085Z,36.78
2023-02-18T15:58:20.696Z,27.02
2023-02-18T16:00:51.190Z,38.58
2023-02-18T16:03:29.400Z,25.83
2023-02-18T16:06:22.647Z,34.78
2023-02-18T16:09:17.397Z,32.92
2023-02-18T16:11:59.687Z,27.50
2023-02-18T16:14:47.358Z,36.78
2023-02-18T16:17:28.818Z,30.55
2023-02-18T16:20:04.860Z,32.03
2023-02-18T16:22:39.099Z,40.03
2023-02-18T16:25:41.144Z,35.25
2023-02-18T16:28:17.576Z,28.58
2023-02-18T16:30:46.126Z,37.65
2023-02-18T16:33:13.480Z,36.90
2023-02-18T16:35:49.441Z,37.00
2023-02-18T16:38:19.693Z,37.33
2023-02-18T16:40:47.098Z,30.58
2023-02-18T16:43:27.505Z,31.48
2023-02-18T16:45:57.803Z,29.67
2023-02-18T16:48:49.450Z,37.90
2023-02-18T16:51:24.448Z,52.10
2023-02-18T16:53:52.263Z,37.75
2023-02-18T16:56:22.484Z,39.58
2023-02-18T16:58:50.928Z,37.97
2023-02-18T17:01:30.605Z,44.83
2023-02-18T17:03:59.622Z,47.17
2023-02-18T17:06:28.058Z,39.42
2023-02-18T17:08:55.661Z,39.15
2023-02-18T17:11:35.105Z,47.10
2023-02-18T17:14:05.056Z,50.75
2023-02-18T17:16:32.905Z,46.25
2023-02-18T17:19:00.216Z,48.45
2023-02-18T17:21:27.741Z,44.47
2023-02-18T17:23:55.200Z,49.05
2023-02-18T17:26:25.398Z,44.78
2023-02-18T17:28:55.695Z,42.67
2023-02-18T17:31:26.581Z,39.85
2023-02-18T17:34:06.768Z,45.05
2023-02-18T17:36:34.456Z,38.08
2023-02-18T17:39:02.857Z,46.17
2023-02-18T17:41:30.420Z,36.13
2023-02-18T17:43:57.823Z,45.97
2023-02-18T17:46:25.157Z,43.72
2023-02-18T17:48:52.607Z,43.13
2023-02-18T17:51:26.389Z,43.20
2023-02-18T17:53:53.829Z,43.38
2023-02-18T17:56:21.624Z,46.03
2023-02-18T17:58:49.272Z,51.92
2023-02-18T18:01:18.708Z,40.05
2023-02-18T18:03:46.751Z,43.30
2023-02-18T18:06:20.920Z,51.40
2023-02-18T18:08:49.297Z,41.00
2023-02-18T18:11:26.045Z,54.80
2023-02-18T18:13:54.154Z,51.00
2023-02-18T18:16:21.954Z,45.70
2023-02-18T18:18:49.424Z,46.72
2023-02-18T18:21:29.590Z,55.97
2023-02-18T18:23:56.933Z,52.53
2023-02-18T18:26:24.608Z,47.65
2023-02-18T18:28:52.016Z,54.75
2023-02-18T18:31:20.095Z,59.47
2023-02-18T18:33:50.496Z,58.03
2023-02-18T18:36:22.083Z,54.13
2023-02-18T18:38:49.479Z,56.25
2023-02-18T18:41:19.661Z,56.95
2023-02-18T18:43:48.828Z,53.83
2023-02-18T18:46:16.141Z,53.15
2023-02-18T18:48:43.509Z,56.58
2023-02-18T18:51:28.928Z,57.33
2023-02-18T18:53:56.370Z,54.80
2023-02-18T18:56:23.912Z,59.33
2023-02-18T18:58:51.882Z,56.95
2023-02-18T19:01:22.725Z,54.67
2023-02-18T19:03:50.223Z,55.08
2023-02-18T19:06:17.968Z,51.05
2023-02-18T19:08:46.564Z,51.80
2023-02-18T19:11:14.779Z,46.08
2023-02-18T19:13:42.694Z,47.60
2023-02-18T19:16:20.637Z,47.85
2023-02-18T19:18:48.424Z,52.03
2023-02-18T19:21:16.780Z,48.03
2023-02-18T19:24:01.478Z,52.13
2023-02-18T19:26:32.577Z,49.22
2023-02-18T19:28:59.927Z,51.65
2023-02-18T19:31:28.311Z,51.08
2023-02-18T19:33:55.807Z,54.33
2023-02-18T19:36:23.197Z,52.22
2023-02-18T19:38:51.490Z,53.75
2023-02-18T19:41:18.870Z,51.67
2023-02-18T19:43:49.610Z,46.13
2023-02-18T19:46:18.638Z,55.65
2023-02-18T19:48:51.040Z,55.70
2023-02-18T19:51:19.054Z,43.58
2023-02-18T19:53:46.485Z,46.05
2023-02-18T19:56:13.885Z,51.85
2023-02-18T19:58:41.277Z,48.20
2023-02-18T20:01:16.341Z,42.83
2023-02-18T20:03:47.067Z,46.22
2023-02-18T20:06:19.144Z,51.72
2023-02-18T20:08:46.775Z,47.23
2023-02-18T20:11:14.201Z,47.08
2023-02-18T20:13:42.160Z,50.50
2023-02-18T20:16:13.323Z,49.22
2023-02-18T20:18:40.760Z,60.58
2023-02-18T20:21:15.093Z,58.40
2023-02-18T20:23:49.812Z,59.13
2023-02-18T20:26:17.450Z,60.55
2023-02-18T20:28:44.752Z,67.07
2023-02-18T20:31:13.442Z,72.18
2023-02-18T20:33:44.821Z,71.28
2023-02-18T20:36:13.718Z,57.35
2023-02-18T20:38:42.403Z,55.63
2023-02-18T20:41:14.311Z,61.83
2023-02-18T20:43:42.406Z,68.72
2023-02-18T20:46:12.551Z,67.85
2023-02-18T20:48:40.260Z,68.35
2023-02-18T20:51:18.882Z,72.65
2023-02-18T20:53:47.432Z,66.43
2023-02-18T20:56:15.095Z,69.20
2023-02-18T20:58:43.732Z,78.00
2023-02-18T21:01:16.325Z,81.60
2023-02-18T21:03:48.205Z,74.50
2023-02-18T21:06:18.193Z,82.97
2023-02-18T21:08:47.198Z,88.60
2023-02-18T21:11:24.675Z,71.07
2023-02-18T21:13:54.086Z,73.47
2023-02-18T21:16:23.037Z,75.93
2023-02-18T21:18:50.821Z,78.00
2023-02-18T21:21:20.593Z,81.07
2023-02-18T21:23:48.539Z,75.20
2023-02-18T21:26:23.343Z,87.57
2023-02-18T21:28:57.910Z,78.43
2023-02-18T21:31:31.104Z,71.63
2023-02-18T21:34:01.506Z,72.93
2023-02-18T21:36:30.418Z,79.60
2023-02-18T21:39:00.308Z,72.05
2023-02-18T21:41:28.570Z,88.03
2023-02-18T21:43:56.812Z,74.43
2023-02-18T21:46:26.842Z,73.30
2023-02-18T21:49:06.705Z,76.70
2023-02-18T21:51:58.032Z,75.68
2023-02-18T21:54:37.416Z,80.53
2023-02-18T21:57:08.548Z,77.68
2023-02-18T21:59:36.725Z,79.88
2023-02-18T22:02:05.001Z,83.20
2023-02-18T22:04:36.766Z,78.53
2023-02-18T22:07:04.431Z,77.45
2023-02-18T22:09:32.058Z,87.65
2023-02-18T22:11:59.532Z,77.20
2023-02-18T22:14:27.304Z,80.45
2023-02-18T22:16:54.747Z,88.60
2023-02-18T22:19:22.162Z,73.13
2023-02-18T22:21:49.618Z,72.70
2023-02-18T22:24:18.889Z,82.68
2023-02-18T22:26:46.831Z,76.95
2023-02-18T22:29:15.465Z,75.15
2023-02-18T22:31:43.369Z,78.65
2023-02-18T22:34:11.443Z,75.53
2023-02-18T22:36:39.172Z,78.40
2023-02-18T22:39:07.505Z,62.10
2023-02-18T22:41:35.592Z,65.45
2023-02-18T22:44:09.099Z,66.07
2023-02-18T22:46:36.962Z,69.57
2023-02-18T22:49:06.087Z,65.60
2023-02-18T22:51:37.798Z,67.13
2023-02-18T22:54:07.212Z,65.38
2023-02-18T22:56:34.832Z,71.88
2023-02-18T22:59:02.224Z,62.97
2023-02-18T23:01:35.036Z,62.40
2023-02-18T23:04:10.775Z,68.40
2023-02-18T23:06:40.278Z,75.97
2023-02-18T23:09:08.911Z,61.53
2023-02-18T23:11:36.329Z,61.63
2023-02-18T23:14:23.210Z,62.05
2023-02-18T23:17:15.135Z,73.05
2023-02-18T23:19:46.701Z,55.05
2023-02-18T23:22:16.120Z,66.43
2023-02-18T23:24:45.139Z,61.50
2023-02-18T23:27:14.361Z,62.53
2023-02-18T23:29:41.935Z,77.10
2023-02-18T23:32:09.720Z,75.40
2023-02-18T23:34:38.194Z,77.40
2023-02-18T23:37:05.865Z,71.13
2023-02-18T23:39:33.275Z,77.82
2023-02-18T23:42:00.819Z,80.65
2023-02-18T23:44:28.757Z,68.13
2023-02-18T23:46:56.991Z,78.47
2023-02-18T23:49:25.929Z,70.35
2023-02-18T23:51:54.978Z,70.22
2023-02-18T23:54:22.900Z,74.68
2023-02-18T23:56:51.529Z,71.45
2023-02-18T23:59:19.053Z,73.28
